Time;durP1;ratioP1;P1;durP2;ratioP2;P2;SDS_P1;SDS_P2;PMS_P1;PMS_P2;Temp;Humidity;BMP_temperature;BMP_pressure;BME280_temperature;BME280_humidity;BME280_pressure;Samples;Min_cycle;Max_cycle;Signal;HPM_P1;HPM_P2
2022/09/08 00:01:28;;;;;;;19.13;17.00;;;16.80;99.90;;;;;;5030317;28;20584;-74
2022/09/08 00:03:54;;;;;;;18.55;16.67;;;16.80;99.90;;;;;;5028318;28;20056;-73
2022/09/08 00:06:20;;;;;;;18.08;15.98;;;16.80;99.90;;;;;;5039996;28;20090;-74
2022/09/08 00:08:47;;;;;;;16.42;14.75;;;16.80;99.90;;;;;;5025741;28;20041;-74
2022/09/08 00:11:18;;;;;;;17.13;15.38;;;16.80;99.90;;;;;;5021839;28;20120;-74
2022/09/08 00:13:45;;;;;;;15.73;14.23;;;16.80;99.90;;;;;;5022773;28;20541;-75
2022/09/08 00:16:12;;;;;;;17.17;15.55;;;16.80;99.90;;;;;;5030135;28;20420;-74
2022/09/08 00:18:40;;;;;;;17.33;15.40;;;16.80;99.90;;;;;;5025321;28;20614;-74
2022/09/08 00:21:06;;;;;;;17.95;16.27;;;16.80;99.90;;;;;;5029199;28;20045;-74
2022/09/08 00:23:32;;;;;;;17.85;16.13;;;16.70;99.90;;;;;;5042446;28;20037;-74
2022/09/08 00:25:58;;;;;;;19.67;17.83;;;16.70;99.90;;;;;;5026332;28;20036;-74
2022/09/08 00:28:23;;;;;;;20.33;18.35;;;16.80;99.90;;;;;;5030464;28;20047;-74
2022/09/08 00:30:49;;;;;;;21.20;19.00;;;16.70;99.90;;;;;;5032125;28;20087;-73
2022/09/08 00:33:15;;;;;;;20.60;18.60;;;16.70;99.90;;;;;;5028085;28;20052;-74
2022/09/08 00:35:44;;;;;;;21.95;19.85;;;16.70;99.90;;;;;;5032938;28;20548;-74
2022/09/08 00:38:10;;;;;;;23.15;20.98;;;16.70;99.90;;;;;;5030386;28;20037;-74
2022/09/08 00:40:45;;;;;;;23.08;20.65;;;16.70;99.90;;;;;;5034177;28;20326;-74
2022/09/08 00:43:31;;;;;;;23.08;20.83;;;16.70;99.90;;;;;;5023205;28;20518;-74
2022/09/08 00:46:00;;;;;;;22.30;20.20;;;16.70;99.90;;;;;;5023616;28;20060;-74
2022/09/08 00:48:26;;;;;;;24.38;21.98;;;16.70;99.90;;;;;;5027414;28;20223;-74
2022/09/08 00:50:53;;;;;;;24.63;22.27;;;16.70;99.90;;;;;;5014350;28;20098;-74
2022/09/08 00:53:19;;;;;;;28.20;25.40;;;16.70;99.90;;;;;;5028177;28;20393;-74
2022/09/08 00:55:45;;;;;;;27.60;24.80;;;16.70;99.90;;;;;;5035405;28;20363;-74
2022/09/08 00:58:12;;;;;;;26.42;23.80;;;16.70;99.90;;;;;;5012015;28;20052;-72
2022/09/08 01:00:40;;;;;;;29.35;26.45;;;16.80;99.90;;;;;;5025792;28;20119;-74
2022/09/08 01:03:09;;;;;;;27.70;24.95;;;16.80;99.90;;;;;;5028849;28;20063;-74
2022/09/08 01:05:52;;;;;;;29.55;26.75;;;16.80;99.90;;;;;;5047247;28;20045;-76
2022/09/08 01:14:14;;;;;;;33.83;28.35;;;16.90;99.90;;;;;;5030707;28;20038;-75
2022/09/08 01:16:46;;;;;;;33.50;30.08;;;17.00;99.90;;;;;;5031983;28;20052;-74
2022/09/08 01:19:25;;;;;;;35.75;32.20;;;17.00;99.90;;;;;;5032848;28;20156;-74
2022/09/08 01:22:04;;;;;;;35.22;31.60;;;17.00;99.90;;;;;;5028716;28;20036;-74
2022/09/08 01:24:50;;;;;;;32.53;28.90;;;17.00;99.90;;;;;;5025368;28;20049;-74
2022/09/08 01:27:27;;;;;;;33.15;29.90;;;17.00;99.90;;;;;;5029607;28;20051;-74
2022/09/08 01:30:00;;;;;;;34.35;30.95;;;17.10;99.90;;;;;;5032683;28;20132;-74
2022/09/08 01:32:32;;;;;;;35.80;32.35;;;17.10;99.90;;;;;;5024689;28;20061;-74
2022/09/08 01:34:58;;;;;;;35.65;32.15;;;17.10;99.90;;;;;;5028865;28;20037;-73
2022/09/08 01:37:24;;;;;;;34.78;31.38;;;17.10;99.90;;;;;;5027554;28;20401;-73
2022/09/08 01:39:49;;;;;;;34.13;30.90;;;17.10;99.90;;;;;;5028955;28;20033;-74
2022/09/08 01:42:15;;;;;;;35.35;30.77;;;17.20;99.90;;;;;;5035126;28;20127;-74
2022/09/08 01:44:43;;;;;;;37.42;33.47;;;17.20;99.90;;;;;;5027815;28;20048;-74
2022/09/08 01:47:09;;;;;;;38.00;34.15;;;17.20;99.90;;;;;;5029641;28;20094;-74
2022/09/08 01:49:35;;;;;;;38.42;33.97;;;17.20;99.90;;;;;;5033813;28;20091;-74
2022/09/08 01:52:01;;;;;;;34.17;30.80;;;17.20;99.90;;;;;;5022542;28;20041;-74
2022/09/08 01:54:27;;;;;;;34.92;31.48;;;17.20;99.90;;;;;;5025247;28;20041;-73
2022/09/08 01:56:57;;;;;;;36.13;32.75;;;17.30;99.90;;;;;;5023280;28;20882;-73
2022/09/08 01:59:23;;;;;;;35.38;31.83;;;17.30;99.90;;;;;;5028233;28;20560;-74
2022/09/08 02:01:49;;;;;;;36.25;32.90;;;17.30;99.90;;;;;;5029250;28;20033;-74
2022/09/08 02:04:15;;;;;;;32.58;29.45;;;17.30;99.90;;;;;;5038871;28;20565;-74
2022/09/08 02:06:41;;;;;;;36.90;32.88;;;17.30;99.90;;;;;;5027118;28;20041;-74
2022/09/08 02:09:07;;;;;;;35.97;32.60;;;17.30;99.90;;;;;;5042951;28;20035;-74
2022/09/08 02:11:33;;;;;;;37.90;33.95;;;17.40;99.90;;;;;;5038475;28;20041;-74
2022/09/08 02:13:59;;;;;;;37.97;34.13;;;17.40;99.90;;;;;;5027295;28;20033;-74
2022/09/08 02:16:25;;;;;;;37.78;34.10;;;17.40;99.90;;;;;;5012863;28;20478;-74
2022/09/08 02:18:53;;;;;;;37.63;33.80;;;17.40;99.90;;;;;;5026876;28;20127;-74
2022/09/08 02:21:20;;;;;;;36.20;32.70;;;17.40;99.90;;;;;;5039761;28;20053;-74
2022/09/08 02:23:48;;;;;;;38.13;34.25;;;17.40;99.90;;;;;;5034978;28;20646;-74
2022/09/08 02:26:18;;;;;;;35.28;31.88;;;17.40;99.90;;;;;;5030915;28;20716;-75
2022/09/08 02:28:45;;;;;;;36.60;32.92;;;17.40;99.90;;;;;;5035790;28;20041;-74
2022/09/08 02:31:11;;;;;;;36.00;32.50;;;17.40;99.90;;;;;;5027929;28;20072;-74
2022/09/08 02:33:37;;;;;;;37.50;33.83;;;17.40;99.90;;;;;;4996127;28;20072;-74
2022/09/08 02:36:03;;;;;;;36.20;32.58;;;17.50;99.90;;;;;;5046352;28;20132;-74
2022/09/08 02:38:28;;;;;;;38.13;34.45;;;17.50;99.90;;;;;;5027452;28;20045;-75
2022/09/08 02:40:55;;;;;;;38.83;34.67;;;17.50;99.90;;;;;;5029829;28;20033;-74
2022/09/08 02:43:22;;;;;;;36.88;31.75;;;17.50;99.90;;;;;;5026896;28;20529;-74
2022/09/08 02:45:47;;;;;;;35.83;32.40;;;17.50;99.90;;;;;;5022242;28;20033;-75
2022/09/08 02:48:13;;;;;;;35.53;31.92;;;17.60;99.90;;;;;;5025945;28;20033;-74
2022/09/08 02:50:39;;;;;;;37.97;34.05;;;17.60;99.90;;;;;;5022615;28;20052;-75
2022/09/08 02:53:05;;;;;;;39.17;34.92;;;17.60;99.90;;;;;;5030630;28;20036;-74
2022/09/08 02:55:31;;;;;;;35.88;31.73;;;17.50;99.90;;;;;;5023724;28;20048;-75
2022/09/08 02:57:57;;;;;;;37.50;33.50;;;17.60;99.90;;;;;;5027195;28;20047;-74
2022/09/08 03:00:29;;;;;;;36.95;33.25;;;17.60;99.90;;;;;;5025219;28;20053;-74
2022/09/08 03:02:55;;;;;;;38.45;34.47;;;17.60;99.90;;;;;;5024139;28;20041;-76
2022/09/08 03:05:20;;;;;;;38.70;34.83;;;17.60;99.90;;;;;;5024163;28;20055;-74
2022/09/08 03:07:46;;;;;;;38.17;34.28;;;17.60;99.90;;;;;;5024147;28;20045;-75
2022/09/08 03:10:12;;;;;;;40.80;36.03;;;17.60;99.90;;;;;;5023616;28;20056;-74
2022/09/08 03:12:38;;;;;;;37.95;34.13;;;17.60;99.90;;;;;;5015936;28;20033;-74
2022/09/08 03:15:04;;;;;;;39.90;35.90;;;17.60;99.90;;;;;;5027060;28;20083;-76
2022/09/08 03:17:29;;;;;;;37.33;33.55;;;17.60;99.90;;;;;;5018621;28;20052;-75
2022/09/08 03:19:55;;;;;;;40.05;35.92;;;17.60;99.90;;;;;;5045650;28;20041;-74
2022/09/08 03:22:21;;;;;;;39.35;35.13;;;17.60;99.90;;;;;;5022557;28;20045;-74
2022/09/08 03:24:46;;;;;;;39.03;35.05;;;17.60;99.90;;;;;;5015845;28;20044;-74
2022/09/08 03:27:13;;;;;;;41.08;36.72;;;17.60;99.90;;;;;;5025799;28;20063;-74
2022/09/08 03:29:39;;;;;;;40.10;35.88;;;17.60;99.90;;;;;;5023842;28;20041;-74
2022/09/08 03:32:04;;;;;;;42.53;37.40;;;17.60;99.90;;;;;;5015087;28;20034;-74
2022/09/08 03:34:30;;;;;;;40.00;35.88;;;17.70;99.90;;;;;;5013793;28;20757;-74
2022/09/08 03:36:56;;;;;;;40.95;36.72;;;17.70;99.90;;;;;;5028601;28;20063;-74
2022/09/08 03:39:21;;;;;;;41.65;37.15;;;17.70;99.90;;;;;;5031662;28;20679;-74
2022/09/08 03:41:47;;;;;;;39.38;35.33;;;17.70;99.90;;;;;;5029964;28;20048;-74
2022/09/08 03:44:13;;;;;;;39.75;35.65;;;17.70;99.90;;;;;;5008409;28;20075;-74
2022/09/08 03:46:39;;;;;;;40.10;35.90;;;17.70;99.90;;;;;;5022614;28;20155;-74
2022/09/08 03:49:05;;;;;;;40.40;36.25;;;17.60;99.90;;;;;;5019118;28;20136;-74
2022/09/08 03:51:30;;;;;;;39.20;35.28;;;17.60;99.90;;;;;;5027735;28;20045;-74
2022/09/08 03:54:46;;;;;;;37.78;34.15;;;17.60;99.90;;;;;;5023928;28;20252;-74
2022/09/08 03:56:45;;;;;;;39.65;35.78;;;17.60;99.90;;;;;;5032141;28;20098;-74
2022/09/08 03:59:11;;;;;;;39.15;35.33;;;17.60;99.90;;;;;;5021083;28;20496;-75
2022/09/08 04:01:36;;;;;;;41.13;37.00;;;17.60;99.90;;;;;;5030889;28;20615;-75
2022/09/08 04:04:02;;;;;;;39.28;35.33;;;17.60;99.90;;;;;;5027418;28;20072;-74
2022/09/08 04:06:29;;;;;;;40.58;36.28;;;17.60;99.90;;;;;;5029325;28;20053;-74
2022/09/08 04:08:55;;;;;;;44.28;39.03;;;17.60;99.90;;;;;;5022452;28;20052;-74
2022/09/08 04:11:21;;;;;;;41.85;37.67;;;17.60;99.90;;;;;;5029323;28;20041;-74
2022/09/08 04:13:47;;;;;;;42.10;37.85;;;17.60;99.90;;;;;;5031286;28;20473;-73
2022/09/08 04:16:12;;;;;;;38.92;34.97;;;17.50;99.90;;;;;;5018477;28;20095;-73
2022/09/08 04:18:38;;;;;;;40.85;36.55;;;17.40;99.90;;;;;;5031048;28;20045;-74
2022/09/08 04:21:04;;;;;;;39.70;35.83;;;17.40;99.90;;;;;;5025157;28;20536;-74
2022/09/08 04:23:30;;;;;;;37.05;33.47;;;17.40;99.90;;;;;;5020817;28;20053;-73
2022/09/08 04:26:02;;;;;;;36.38;32.67;;;17.40;99.90;;;;;;5023717;28;20037;-74
2022/09/08 04:28:28;;;;;;;39.83;35.88;;;17.40;99.90;;;;;;5032819;28;21236;-74
2022/09/08 04:30:54;;;;;;;39.28;35.25;;;17.40;99.90;;;;;;5027925;28;20400;-74
2022/09/08 04:33:20;;;;;;;41.08;35.78;;;17.30;99.90;;;;;;5030868;28;20045;-74
2022/09/08 04:35:45;;;;;;;42.45;37.95;;;17.30;99.90;;;;;;5031929;28;20036;-74
2022/09/08 04:38:11;;;;;;;40.85;36.65;;;17.30;99.90;;;;;;5032387;28;20041;-74
2022/09/08 04:40:37;;;;;;;39.60;35.75;;;17.30;99.90;;;;;;5036497;28;20041;-74
2022/09/08 04:43:03;;;;;;;41.55;37.22;;;17.30;99.90;;;;;;5030226;28;20056;-74
2022/09/08 04:45:29;;;;;;;42.83;38.08;;;17.30;99.90;;;;;;5036672;28;20037;-74
2022/09/08 04:47:54;;;;;;;39.08;35.00;;;17.30;99.90;;;;;;5030614;28;20036;-74
2022/09/08 04:50:20;;;;;;;38.88;34.75;;;17.20;99.90;;;;;;5028358;28;20044;-74
2022/09/08 04:52:46;;;;;;;37.90;33.63;;;17.20;99.90;;;;;;5019679;28;20040;-75
2022/09/08 04:55:11;;;;;;;36.35;32.53;;;17.10;99.90;;;;;;5008910;28;20693;-74
2022/09/08 04:57:37;;;;;;;39.40;35.20;;;17.10;99.90;;;;;;5035092;28;20496;-74
2022/09/08 05:00:04;;;;;;;38.65;34.22;;;17.10;99.90;;;;;;5046994;28;20696;-75
2022/09/08 05:02:30;;;;;;;39.13;33.50;;;17.10;99.90;;;;;;5028666;28;20045;-74
2022/09/08 05:04:56;;;;;;;41.70;37.50;;;17.10;99.90;;;;;;5026460;28;20511;-74
2022/09/08 05:07:22;;;;;;;49.63;39.25;;;17.20;99.90;;;;;;5025154;28;20710;-74
2022/09/08 05:09:48;;;;;;;47.85;42.45;;;17.20;99.90;;;;;;5021151;28;20107;-74
2022/09/08 05:12:13;;;;;;;48.03;43.03;;;17.20;99.90;;;;;;5025431;28;20673;-74
2022/09/08 05:14:39;;;;;;;46.10;41.30;;;17.30;99.90;;;;;;5040639;28;20490;-74
2022/09/08 05:17:05;;;;;;;48.42;43.15;;;17.30;99.90;;;;;;5024267;28;20721;-75
2022/09/08 05:19:31;;;;;;;49.80;44.45;;;17.30;99.90;;;;;;5030071;28;20396;-75
2022/09/08 05:21:57;;;;;;;47.67;42.75;;;17.30;99.90;;;;;;5031460;28;20527;-74
2022/09/08 05:24:22;;;;;;;48.88;43.47;;;17.40;99.90;;;;;;5033369;28;20037;-74
2022/09/08 05:26:48;;;;;;;49.08;43.75;;;17.40;99.90;;;;;;5035099;28;20462;-74
2022/09/08 05:29:14;;;;;;;46.13;41.15;;;17.40;99.90;;;;;;5025859;28;20048;-74
2022/09/08 05:31:39;;;;;;;50.47;43.85;;;17.40;99.90;;;;;;5030175;28;20044;-74
2022/09/08 05:34:05;;;;;;;47.63;42.72;;;17.40;99.90;;;;;;5029914;28;20090;-73
2022/09/08 05:36:33;;;;;;;49.55;43.10;;;17.40;99.90;;;;;;5029504;28;20725;-74
2022/09/08 05:39:00;;;;;;;50.97;44.25;;;17.50;99.90;;;;;;5047037;28;20098;-74
2022/09/08 05:41:26;;;;;;;52.65;46.83;;;17.50;99.90;;;;;;5023457;28;20041;-74
2022/09/08 05:43:55;;;;;;;49.70;44.55;;;17.50;99.90;;;;;;5027005;28;20095;-74
2022/09/08 05:46:22;;;;;;;50.58;45.28;;;17.40;99.90;;;;;;5028153;28;20041;-73
2022/09/08 05:48:47;;;;;;;62.70;49.80;;;17.40;99.90;;;;;;5030444;28;20038;-75
2022/09/08 05:51:20;;;;;;;67.18;48.47;;;17.40;99.90;;;;;;5032273;28;20037;-75
2022/09/08 05:53:46;;;;;;;63.70;46.88;;;17.40;99.90;;;;;;5030442;28;20493;-75
2022/09/08 05:56:13;;;;;;;52.92;45.13;;;17.50;99.90;;;;;;5036225;28;20033;-74
2022/09/08 05:58:38;;;;;;;59.05;47.95;;;17.50;99.90;;;;;;5031386;28;20037;-74
2022/09/08 06:01:06;;;;;;;59.00;48.83;;;17.50;99.90;;;;;;5010032;28;20049;-75
2022/09/08 06:03:31;;;;;;;60.40;48.13;;;17.50;99.90;;;;;;5028975;28;20069;-74
2022/09/08 06:06:06;;;;;;;67.00;49.10;;;17.40;99.90;;;;;;5029116;28;20122;-76
2022/09/08 06:08:32;;;;;;;66.47;49.05;;;17.50;99.90;;;;;;5013749;28;20033;-75
2022/09/08 06:10:58;;;;;;;61.92;46.47;;;17.50;99.90;;;;;;5036514;28;20048;-74
2022/09/08 06:13:24;;;;;;;46.25;41.25;;;17.40;99.90;;;;;;5013440;28;20116;-74
2022/09/08 06:15:50;;;;;;;51.05;44.95;;;17.40;99.90;;;;;;5023941;28;20148;-74
2022/09/08 06:18:17;;;;;;;52.40;43.75;;;17.40;99.90;;;;;;5030108;28;20029;-72
2022/09/08 06:20:44;;;;;;;48.10;42.42;;;17.40;99.90;;;;;;5010520;28;20033;-72
2022/09/08 06:23:10;;;;;;;55.58;44.75;;;17.40;99.90;;;;;;5017790;28;20046;-72
2022/09/08 06:25:45;;;;;;;53.63;45.58;;;17.40;99.90;;;;;;5011919;28;20041;-72
2022/09/08 06:28:33;;;;;;;47.70;42.80;;;17.50;99.90;;;;;;5037035;28;20686;-73
2022/09/08 06:31:11;;;;;;;52.53;43.83;;;17.50;99.90;;;;;;5007366;28;20138;-73
2022/09/08 06:33:40;;;;;;;49.05;43.75;;;17.50;99.90;;;;;;5047321;28;20033;-73
2022/09/08 06:36:21;;;;;;;56.92;45.00;;;17.50;99.90;;;;;;5036254;28;20029;-73
2022/09/08 06:38:56;;;;;;;63.42;44.22;;;17.50;99.90;;;;;;5030586;28;20037;-73
2022/09/08 06:41:28;;;;;;;56.22;43.80;;;17.40;99.90;;;;;;5031959;28;20041;-72
2022/09/08 06:44:01;;;;;;;53.70;43.42;;;17.50;99.90;;;;;;5038910;28;20037;-72
2022/09/08 06:46:31;;;;;;;48.05;40.42;;;17.50;99.90;;;;;;5015629;28;20124;-72
2022/09/08 06:48:58;;;;;;;45.35;39.88;;;17.50;99.90;;;;;;5010568;28;20516;-72
2022/09/08 06:51:38;;;;;;;49.58;40.80;;;17.40;99.90;;;;;;5034611;28;20052;-72
2022/09/08 06:54:13;;;;;;;49.45;39.63;;;17.40;99.90;;;;;;5022993;28;20405;-72
2022/09/08 06:57:14;;;;;;;48.38;41.72;;;17.40;99.90;;;;;;5027971;28;20051;-72
2022/09/08 06:59:53;;;;;;;43.72;39.05;;;17.40;99.90;;;;;;5024597;28;20053;-72
2022/09/08 07:02:37;;;;;;;55.97;42.15;;;17.50;99.90;;;;;;5032918;28;20041;-72
2022/09/08 07:05:25;;;;;;;47.40;40.10;;;17.50;99.90;;;;;;5020982;28;20053;-73
2022/09/08 07:08:10;;;;;;;47.67;42.10;;;17.40;99.90;;;;;;5035579;28;20120;-73
2022/09/08 07:10:56;;;;;;;46.60;41.17;;;17.40;99.90;;;;;;5032306;28;20047;-73
2022/09/08 07:13:43;;;;;;;43.25;38.60;;;17.50;99.90;;;;;;5023502;28;20048;-73
2022/09/08 07:16:23;;;;;;;54.80;43.28;;;17.50;99.90;;;;;;5052353;28;20036;-73
2022/09/08 07:18:57;;;;;;;47.55;39.40;;;17.50;99.90;;;;;;5034700;28;20037;-73
2022/09/08 07:21:33;;;;;;;43.85;39.15;;;17.50;99.90;;;;;;5024253;28;20048;-73
2022/09/08 07:24:01;;;;;;;43.42;38.63;;;17.50;99.90;;;;;;5029203;28;20046;-73
2022/09/08 07:26:45;;;;;;;45.13;38.60;;;17.50;99.90;;;;;;5032430;28;20034;-72
2022/09/08 07:29:19;;;;;;;44.03;38.97;;;17.50;99.90;;;;;;5018505;28;20049;-72
2022/09/08 07:31:49;;;;;;;50.90;40.35;;;17.50;99.90;;;;;;5030279;28;20124;-73
2022/09/08 07:34:19;;;;;;;46.88;40.50;;;17.60;99.90;;;;;;5036395;28;20045;-73
2022/09/08 07:36:57;;;;;;;47.15;39.67;;;17.60;99.90;;;;;;5036825;28;20033;-73
2022/09/08 07:39:37;;;;;;;48.88;39.90;;;17.60;99.90;;;;;;5033759;28;20040;-73
2022/09/08 07:42:06;;;;;;;46.80;39.58;;;17.60;99.90;;;;;;5016883;28;20056;-73
2022/09/08 07:44:33;;;;;;;49.67;42.53;;;17.60;99.90;;;;;;5025843;28;20040;-73
2022/09/08 07:47:33;;;;;;;47.30;41.55;;;17.60;99.90;;;;;;5046541;28;20041;-73
2022/09/08 07:50:20;;;;;;;48.47;40.42;;;17.60;99.90;;;;;;5013137;28;20052;-73
2022/09/08 07:53:02;;;;;;;51.10;43.67;;;17.60;99.90;;;;;;5035457;28;20130;-71
2022/09/08 07:55:34;;;;;;;48.95;41.17;;;17.60;99.90;;;;;;5002107;28;20051;-73
2022/09/08 07:58:18;;;;;;;46.40;40.95;;;17.60;99.90;;;;;;5046918;28;20119;-73
2022/09/08 08:00:52;;;;;;;46.67;41.67;;;17.60;99.90;;;;;;5032272;28;20048;-73
2022/09/08 08:03:42;;;;;;;52.05;42.95;;;17.60;99.90;;;;;;5007193;28;20053;-72
2022/09/08 08:06:17;;;;;;;51.10;39.08;;;17.60;99.90;;;;;;5050720;28;20048;-72
2022/09/08 08:08:55;;;;;;;43.78;36.30;;;17.60;99.90;;;;;;5014887;28;20078;-72
2022/09/08 08:11:35;;;;;;;48.92;36.17;;;17.60;99.90;;;;;;5012652;28;20124;-72
2022/09/08 08:14:21;;;;;;;42.45;32.83;;;17.60;99.90;;;;;;5012655;28;20045;-72
2022/09/08 08:17:10;;;;;;;35.90;29.77;;;17.60;99.90;;;;;;5030469;28;20037;-72
2022/09/08 08:20:08;;;;;;;36.17;30.70;;;17.60;99.90;;;;;;5023697;28;20045;-71
2022/09/08 08:22:49;;;;;;;34.85;28.23;;;17.60;99.90;;;;;;5025300;28;20042;-71
2022/09/08 08:25:28;;;;;;;33.40;27.17;;;17.60;99.90;;;;;;5032333;28;20041;-72
2022/09/08 08:28:19;;;;;;;33.47;24.25;;;17.60;99.90;;;;;;5032948;28;20040;-73
2022/09/08 08:31:26;;;;;;;28.10;21.35;;;17.60;99.90;;;;;;5031764;28;20068;-73
2022/09/08 08:34:02;;;;;;;25.45;18.33;;;17.60;99.90;;;;;;5014968;28;20124;-73
2022/09/08 08:36:33;;;;;;;23.98;17.48;;;17.60;99.90;;;;;;5019390;28;20048;-73
2022/09/08 08:39:18;;;;;;;29.20;18.10;;;17.70;99.90;;;;;;5047064;28;20123;-73
2022/09/08 08:42:16;;;;;;;21.02;16.23;;;17.70;99.90;;;;;;5033735;28;20045;-73
2022/09/08 08:45:06;;;;;;;24.27;17.38;;;17.70;99.90;;;;;;5012873;28;20041;-73
2022/09/08 08:47:54;;;;;;;19.42;14.95;;;17.60;99.90;;;;;;5013615;28;20516;-73
2022/09/08 08:50:48;;;;;;;17.65;13.90;;;17.60;99.90;;;;;;5013443;28;20088;-73
2022/09/08 08:53:51;;;;;;;20.42;14.63;;;17.60;99.90;;;;;;5014228;28;20045;-73
2022/09/08 08:56:38;;;;;;;20.15;14.90;;;17.60;99.90;;;;;;5029722;28;20413;-73
2022/09/08 08:59:21;;;;;;;17.88;14.32;;;17.60;99.90;;;;;;5012979;28;20054;-73
2022/09/08 09:02:19;;;;;;;19.27;13.02;;;17.60;99.90;;;;;;5014495;28;20037;-72
2022/09/08 09:04:53;;;;;;;18.92;12.80;;;17.60;99.90;;;;;;5002415;28;20052;-74
2022/09/08 09:07:55;;;;;;;18.90;12.68;;;17.60;99.90;;;;;;5027141;28;20459;-74
2022/09/08 09:10:45;;;;;;;15.90;11.80;;;17.70;99.90;;;;;;5026452;28;20068;-74
2022/09/08 09:13:42;;;;;;;18.60;12.85;;;17.70;99.90;;;;;;5029568;28;20513;-74
2022/09/08 09:16:26;;;;;;;17.77;12.50;;;17.70;99.90;;;;;;5036725;28;20439;-74
2022/09/08 09:19:23;;;;;;;20.17;14.43;;;17.70;99.90;;;;;;5023894;28;20393;-74
2022/09/08 09:22:06;;;;;;;19.98;13.35;;;17.70;99.90;;;;;;5021243;28;20045;-74
2022/09/08 09:24:56;;;;;;;17.00;12.88;;;17.70;99.90;;;;;;5035973;28;20070;-74
2022/09/08 09:27:32;;;;;;;14.07;9.70;;;17.60;99.90;;;;;;5036110;28;20091;-77
2022/09/08 09:30:18;;;;;;;9.82;8.10;;;17.50;99.90;;;;;;5051038;28;20045;-77
2022/09/08 09:33:15;;;;;;;8.90;7.30;;;17.30;99.90;;;;;;5039818;28;20515;-77
2022/09/08 09:36:26;;;;;;;11.10;7.72;;;17.20;99.90;;;;;;5028650;28;20459;-77
2022/09/08 09:39:09;;;;;;;11.35;8.82;;;17.10;99.90;;;;;;5023974;28;20412;-76
2022/09/08 09:41:57;;;;;;;12.25;8.95;;;17.10;99.90;;;;;;5016476;28;20541;-76
2022/09/08 09:45:02;;;;;;;10.77;8.45;;;17.10;99.90;;;;;;5033672;28;20486;-76
2022/09/08 09:47:50;;;;;;;8.85;7.43;;;17.00;99.90;;;;;;5014050;28;20096;-75
2022/09/08 09:50:52;;;;;;;10.95;7.10;;;17.00;99.90;;;;;;5026395;28;20029;-75
2022/09/08 09:53:50;;;;;;;8.85;5.38;;;17.00;99.90;;;;;;5013527;28;20045;-76
2022/09/08 09:56:35;;;;;;;6.90;5.28;;;17.00;99.90;;;;;;5033614;28;20432;-75
2022/09/08 09:59:23;;;;;;;6.05;4.72;;;16.90;99.90;;;;;;5035833;28;20445;-76
2022/09/08 10:02:28;;;;;;;5.80;4.68;;;16.90;99.90;;;;;;5033386;28;20120;-75
2022/09/08 10:05:25;;;;;;;7.50;4.55;;;16.90;99.90;;;;;;5009651;28;20057;-76
2022/09/08 10:08:19;;;;;;;8.15;4.80;;;16.80;99.90;;;;;;5025536;28;20040;-78
2022/09/08 10:11:26;;;;;;;7.47;4.65;;;16.80;99.90;;;;;;5011896;28;20052;-78
2022/09/08 10:14:20;;;;;;;6.57;4.60;;;16.70;99.90;;;;;;5008103;28;20059;-78
2022/09/08 10:17:01;;;;;;;5.63;4.07;;;16.70;99.90;;;;;;5024851;28;20042;-78
2022/09/08 10:20:06;;;;;;;6.22;3.90;;;16.80;99.90;;;;;;5015843;28;20057;-78
2022/09/08 10:23:10;;;;;;;6.43;4.00;;;16.80;99.90;;;;;;5015624;28;20053;-76
2022/09/08 10:25:55;;;;;;;5.28;3.70;;;16.90;99.90;;;;;;4967709;28;20046;-76
2022/09/08 10:28:46;;;;;;;6.55;4.30;;;16.90;99.90;;;;;;5023239;28;20084;-77
2022/09/08 10:31:41;;;;;;;5.15;4.20;;;17.00;99.90;;;;;;5019155;28;20045;-77
2022/09/08 10:34:23;;;;;;;8.15;4.50;;;17.10;99.90;;;;;;5027780;28;20045;-77
2022/09/08 10:37:12;;;;;;;5.70;4.18;;;17.10;99.90;;;;;;5035834;28;20127;-77
2022/09/08 10:40:15;;;;;;;47.15;5.97;;;17.10;99.90;;;;;;5030779;28;20049;-77
2022/09/08 10:42:49;;;;;;;;;;;17.10;99.90;;;;;;5021996;28;20051;-75
2022/09/08 10:45:22;;;;;;;3.83;2.88;;;17.10;99.90;;;;;;5030963;28;20088;-76
2022/09/08 10:48:06;;;;;;;5.18;2.75;;;17.00;99.90;;;;;;5028971;28;20039;-75
2022/09/08 10:50:35;;;;;;;7.90;3.40;;;17.00;99.90;;;;;;5033438;28;20087;-75
2022/09/08 10:53:26;;;;;;;3.63;3.30;;;17.00;99.90;;;;;;5050893;28;20128;-75
2022/09/08 10:56:05;;;;;;;3.42;2.80;;;17.00;99.90;;;;;;5025482;28;20040;-75
2022/09/08 10:59:03;;;;;;;6.47;2.97;;;17.00;99.90;;;;;;5030157;28;20072;-75
2022/09/08 11:01:46;;;;;;;3.88;3.13;;;17.00;99.90;;;;;;5064509;23;20046;-75
2022/09/08 11:04:42;;;;;;;3.65;2.63;;;17.00;99.90;;;;;;4999149;28;20081;-76
2022/09/08 11:07:10;;;;;;;6.07;2.95;;;16.90;99.90;;;;;;5006537;28;20680;-77
2022/09/08 11:10:13;;;;;;;4.03;2.88;;;16.90;99.90;;;;;;5007701;28;20038;-76
2022/09/08 11:13:30;;;;;;;6.07;2.70;;;16.90;99.90;;;;;;4997275;28;20033;-77
2022/09/08 11:16:26;;;;;;;7.00;2.67;;;16.90;99.90;;;;;;4913320;29;20245;-73
2022/09/08 11:19:19;;;;;;;5.13;2.92;;;16.90;99.90;;;;;;4993971;28;20034;-74
2022/09/08 11:22:13;;;;;;;4.45;3.22;;;16.90;99.90;;;;;;4997041;28;20044;-73
2022/09/08 11:25:23;;;;;;;6.22;3.33;;;16.90;99.90;;;;;;4989972;28;20042;-77
2022/09/08 11:28:16;;;;;;;5.20;3.70;;;16.90;99.90;;;;;;4917109;28;20182;-73
2022/09/08 11:30:53;;;;;;;7.10;3.60;;;16.90;99.90;;;;;;4978815;28;20047;-73
2022/09/08 11:33:54;;;;;;;7.28;4.20;;;17.00;99.90;;;;;;4975330;28;20042;-76
2022/09/08 11:36:46;;;;;;;4.70;4.20;;;17.00;99.90;;;;;;4996134;28;20035;-76
2022/09/08 11:39:42;;;;;;;4.18;3.78;;;17.00;99.90;;;;;;5001983;28;20042;-75
2022/09/08 11:42:32;;;;;;;6.35;4.80;;;17.10;99.90;;;;;;5007889;28;20064;-75
2022/09/08 11:45:22;;;;;;;7.13;5.03;;;17.20;99.90;;;;;;5005477;28;20038;-75
2022/09/08 11:48:25;;;;;;;5.45;4.95;;;17.20;99.90;;;;;;4994721;28;20050;-75
2022/09/08 11:50:51;;;;;;;9.35;5.63;;;17.30;99.90;;;;;;4993555;28;20057;-77
2022/09/08 11:53:39;;;;;;;6.20;5.25;;;17.40;99.90;;;;;;4994223;28;20042;-72
2022/09/08 11:56:19;;;;;;;6.28;5.68;;;17.50;99.90;;;;;;5011119;28;20040;-76
2022/09/08 11:59:22;;;;;;;9.50;7.18;;;17.50;99.90;;;;;;4993655;28;20038;-76
2022/09/08 12:02:33;;;;;;;8.48;6.75;;;17.60;99.90;;;;;;4992783;28;20130;-76
2022/09/08 12:05:08;;;;;;;9.57;7.65;;;17.60;99.90;;;;;;4939950;28;20054;-76
2022/09/08 12:07:56;;;;;;;7.75;7.05;;;17.70;99.90;;;;;;4981582;28;20061;-76
2022/09/08 12:10:52;;;;;;;8.98;7.72;;;17.80;99.90;;;;;;4983403;28;20499;-76
2022/09/08 12:13:22;;;;;;;12.13;8.90;;;17.70;99.90;;;;;;4990987;28;20443;-76
2022/09/08 12:15:55;;;;;;;11.02;8.55;;;17.90;99.90;;;;;;4987669;28;20104;-76
2022/09/08 12:18:55;;;;;;;10.52;9.13;;;17.80;99.90;;;;;;4971056;28;20037;-76
2022/09/08 12:21:50;;;;;;;11.40;10.20;;;18.00;99.90;;;;;;4986934;28;20096;-77
2022/09/08 12:24:28;;;;;;;11.35;9.13;;;18.20;99.90;;;;;;4987768;28;20088;-75
2022/09/08 12:27:06;;;;;;;10.75;9.50;;;18.20;99.90;;;;;;4986306;28;20042;-75
2022/09/08 12:29:51;;;;;;;11.35;9.50;;;18.20;99.90;;;;;;4984645;28;20054;-75
2022/09/08 12:32:36;;;;;;;13.20;9.63;;;18.30;99.90;;;;;;4981057;28;20038;-76
2022/09/08 12:35:04;;;;;;;11.35;9.70;;;18.30;99.90;;;;;;4982167;28;20035;-75
2022/09/08 12:37:50;;;;;;;12.40;10.07;;;18.40;99.90;;;;;;4987308;28;20046;-75
2022/09/08 12:40:53;;;;;;;10.90;9.77;;;18.40;99.90;;;;;;4981522;28;20042;-75
2022/09/08 12:43:37;;;;;;;10.25;8.88;;;18.50;99.90;;;;;;4983300;28;20046;-75
2022/09/08 12:46:18;;;;;;;11.98;9.75;;;18.60;99.90;;;;;;4986963;28;20034;-75
2022/09/08 12:49:10;;;;;;;11.85;9.88;;;18.80;99.90;;;;;;4975193;28;20070;-75
2022/09/08 12:51:38;;;;;;;11.83;9.87;;;18.70;99.90;;;;;;4993280;28;20100;-75
2022/09/08 12:54:40;;;;;;;11.93;10.13;;;18.80;99.90;;;;;;4996921;28;20304;-76
2022/09/08 12:57:44;;;;;;;10.60;8.68;;;18.90;99.90;;;;;;4993579;28;20045;-76
2022/09/08 13:00:16;;;;;;;10.13;9.13;;;18.90;99.90;;;;;;4991406;28;20044;-76
2022/09/08 13:03:00;;;;;;;12.35;9.27;;;18.90;99.90;;;;;;4987396;28;20046;-76
2022/09/08 13:05:25;;;;;;;10.80;9.68;;;18.80;99.90;;;;;;4992586;28;20042;-76
2022/09/08 13:08:15;;;;;;;11.07;9.63;;;19.00;99.90;;;;;;4992042;28;20609;-76
2022/09/08 13:10:46;;;;;;;10.30;9.00;;;19.00;99.90;;;;;;4985367;28;20034;-76
2022/09/08 13:13:45;;;;;;;11.43;9.40;;;18.90;99.90;;;;;;4988069;28;20042;-76
2022/09/08 13:16:30;;;;;;;10.52;8.75;;;18.90;99.90;;;;;;4993716;28;20030;-76
2022/09/08 13:19:21;;;;;;;10.13;9.07;;;18.90;99.90;;;;;;5003873;28;20037;-76
2022/09/08 13:22:09;;;;;;;11.75;9.65;;;18.90;99.90;;;;;;4998282;28;20034;-76
2022/09/08 13:24:50;;;;;;;10.27;8.82;;;19.00;99.90;;;;;;4998953;28;20046;-76